Tayma — 9HA2989 — position and weather

sailwx.info

Track history (hours):
 
Tides and Currents Weather Stations Pressure Air Temp Water Temp Dewpoint Dewpoint Depression Visibility Wind Speed Wind Dir Waves Ship Positions

Tayma

Last reported at 2018-Aug-15 23:14 UTC. Time now 2018-Aug-16 08:46 UTC.
Position N 36°52' E 000°26'.

Length 366 m; draft 13.7 m.

Type: Ship (hazmat cat A). MMSI: 229009000.

Date/timePositionNaut miles runAvg speedWind from/ knotsBaromVisibWave heightAir tempDewpointWater temp
2018-Aug-15 23:14N 36°52' E 000°26'723.1
2018-Aug-15 22:56N 36°54' E 000°35'1022.7
2018-Aug-15 22:30N 36°56' E 000°47'2222.4
2018-Aug-15 21:30N 37°01' E 001°14'  
2018-Aug-12 19:41N 31°30' E 032°18'1510.9
2018-Aug-12 18:19N 31°16' E 032°21'3 8.4
2018-Aug-12 18:00N 31°13' E 032°21'4 7.1
2018-Aug-12 17:30N 31°10' E 032°20'8 9.6
2018-Aug-12 16:42N 31°02' E 032°19'210.5
2018-Aug-12 16:30N 30°60' E 032°19'710.3
2018-Aug-12 15:49N 30°53' E 032°19'3 9.9
2018-Aug-12 15:29N 30°49' E 032°19'  
Track history (hours):
 
Tides and Currents Weather Stations Pressure Air Temp Water Temp Dewpoint Dewpoint Depression Visibility Wind Speed Wind Dir Waves Ship Positions

Tayma

Last reported at 2018-Aug-15 23:14 UTC. Time now 2018-Aug-16 08:46 UTC.
Position N 36°52' E 000°26'.

Length 366 m; draft 13.7 m.

Type: Ship (hazmat cat A). MMSI: 229009000.

Date/timePositionNaut miles runAvg speedWind from/ knotsBaromVisibWave heightAir tempDewpointWater temp
2018-Aug-15 23:14N 36°52' E 000°26'723.1
2018-Aug-15 22:56N 36°54' E 000°35'1022.7
2018-Aug-15 22:30N 36°56' E 000°47'2222.4
2018-Aug-15 21:30N 37°01' E 001°14'  
2018-Aug-12 19:41N 31°30' E 032°18'1510.9
2018-Aug-12 18:19N 31°16' E 032°21'3 8.4
2018-Aug-12 18:00N 31°13' E 032°21'4 7.1
2018-Aug-12 17:30N 31°10' E 032°20'8 9.6
2018-Aug-12 16:42N 31°02' E 032°19'210.5
2018-Aug-12 16:30N 30°60' E 032°19'710.3
2018-Aug-12 15:49N 30°53' E 032°19'3 9.9
2018-Aug-12 15:29N 30°49' E 032°19'  

Dump ship's entire track history